Time;durP1;ratioP1;P1;durP2;ratioP2;P2;SDS_P1;SDS_P2;PMS_P1;PMS_P2;Temp;Humidity;BMP_temperature;BMP_pressure;BME280_temperature;BME280_humidity;BME280_pressure;Samples;Min_cycle;Max_cycle;Signal;HPM_P1;HPM_P2
2023/08/25 00:00:32;;;;;;;20.48;19.08;;;;;;;23.78;53.56;99858.34;5024935;27;96797;-85
2023/08/25 00:02:57;;;;;;;20.98;19.38;;;;;;;23.60;53.92;99844.00;5032305;27;99146;-84
2023/08/25 00:05:23;;;;;;;20.63;19.27;;;;;;;23.09;55.09;99830.06;5032290;28;98547;-85
2023/08/25 00:07:49;;;;;;;20.33;18.65;;;;;;;23.30;54.58;99831.69;5031058;28;96758;-85
2023/08/25 00:10:14;;;;;;;20.13;18.83;;;;;;;23.30;54.98;99847.75;5020098;28;96800;-85
2023/08/25 00:12:40;;;;;;;20.13;18.77;;;;;;;23.24;54.98;99835.78;5032374;28;98817;-85
2023/08/25 00:15:07;;;;;;;21.90;19.90;;;;;;;23.27;55.07;99847.09;5032259;28;98857;-85
2023/08/25 00:17:33;;;;;;;20.95;19.33;;;;;;;23.28;54.95;99829.19;5031721;27;96749;-84
2023/08/25 00:19:59;;;;;;;20.85;19.23;;;;;;;23.10;55.54;99829.09;5019722;27;96840;-84
2023/08/25 00:22:25;;;;;;;20.88;19.27;;;;;;;22.74;56.49;99826.13;5035792;28;98768;-85
2023/08/25 00:24:52;;;;;;;20.92;19.23;;;;;;;22.82;56.30;99814.72;5035777;27;98503;-85
2023/08/25 00:27:18;;;;;;;21.45;19.45;;;;;;;22.89;56.33;99810.47;5017493;28;96791;-84
2023/08/25 00:29:44;;;;;;;20.17;18.58;;;;;;;22.90;56.21;99809.50;5025296;28;96855;-85
2023/08/25 00:32:10;;;;;;;21.60;19.73;;;;;;;22.93;56.36;99822.59;5013773;28;100772;-85
2023/08/25 00:34:35;;;;;;;20.80;19.17;;;;;;;22.87;56.44;99814.31;5036029;28;98730;-85
2023/08/25 00:37:01;;;;;;;20.88;19.17;;;;;;;22.80;56.79;99801.47;5003584;28;96743;-85
2023/08/25 00:39:26;;;;;;;21.25;19.60;;;;;;;22.88;56.75;99810.66;5036177;28;96790;-84
2023/08/25 00:41:54;;;;;;;21.10;19.38;;;;;;;22.86;56.68;99794.72;5016774;28;98981;-84
2023/08/25 00:44:20;;;;;;;21.25;19.70;;;;;;;22.81;56.89;99792.50;5034617;27;97720;-85
2023/08/25 00:46:46;;;;;;;22.60;20.95;;;;;;;22.88;56.54;99786.56;5035638;27;96684;-85
2023/08/25 00:49:13;;;;;;;20.52;19.00;;;;;;;22.97;56.33;99777.69;5035879;28;96812;-85
2023/08/25 00:51:38;;;;;;;21.10;18.98;;;;;;;23.01;56.47;99787.97;5017076;28;98602;-85
2023/08/25 00:54:05;;;;;;;21.45;19.63;;;;;;;23.10;56.19;99778.22;5035222;27;98907;-85
2023/08/25 00:56:30;;;;;;;21.90;20.13;;;;;;;23.03;56.27;99779.78;5035435;28;96785;-84
2023/08/25 00:58:56;;;;;;;21.67;19.90;;;;;;;23.07;56.26;99780.34;5035660;28;96815;-85
2023/08/25 01:01:22;;;;;;;20.98;19.38;;;;;;;23.02;56.49;99786.97;4995236;28;98740;-84
2023/08/25 01:03:49;;;;;;;21.00;19.40;;;;;;;22.49;57.60;99762.56;5026002;28;99423;-84
2023/08/25 01:06:15;;;;;;;21.48;19.67;;;;;;;22.82;57.01;99791.50;5049061;27;96760;-85
2023/08/25 01:08:42;;;;;;;22.40;20.48;;;;;;;22.86;57.14;99786.69;5035300;28;96764;-85
2023/08/25 01:11:26;;;;;;;21.88;20.15;;;;;;;22.94;56.95;99789.50;5002509;28;97050;-84
2023/08/25 01:14:06;;;;;;;22.00;20.15;;;;;;;22.65;57.67;99784.19;4996990;28;101383;-84
2023/08/25 01:17:04;;;;;;;22.63;20.70;;;;;;;22.45;58.16;99786.03;5017491;28;96696;-85
2023/08/25 01:19:58;;;;;;;21.83;20.13;;;;;;;22.48;58.34;99790.25;4997687;28;96876;-85
2023/08/25 01:22:43;;;;;;;22.67;20.60;;;;;;;22.28;58.78;99784.94;5006838;28;99265;-85
2023/08/25 01:25:16;;;;;;;23.63;21.63;;;;;;;22.35;58.70;99778.03;5034106;28;99236;-85
2023/08/25 01:27:43;;;;;;;22.55;20.75;;;;;;;22.38;58.91;99774.22;5017033;28;96862;-85
2023/08/25 01:30:09;;;;;;;23.30;21.42;;;;;;;22.29;59.10;99789.28;5021295;28;96863;-85
2023/08/25 01:32:37;;;;;;;22.77;20.90;;;;;;;22.40;58.78;99782.09;5018790;28;99063;-85
2023/08/25 01:35:04;;;;;;;22.48;20.85;;;;;;;22.38;58.81;99792.94;5034446;28;98408;-85
2023/08/25 01:37:33;;;;;;;21.83;20.13;;;;;;;22.31;59.00;99768.63;5016687;28;96877;-85
2023/08/25 01:40:05;;;;;;;22.02;20.33;;;;;;;22.53;58.36;99783.50;5016877;28;96798;-85
2023/08/25 01:42:33;;;;;;;22.60;20.90;;;;;;;22.71;57.91;99788.13;5000009;28;98806;-85
2023/08/25 01:45:00;;;;;;;21.88;20.23;;;;;;;22.58;58.34;99770.56;5016489;28;98558;-85
2023/08/25 01:47:28;;;;;;;23.67;21.48;;;;;;;22.28;59.01;99754.66;5034647;28;96735;-84
2023/08/25 01:49:54;;;;;;;23.23;21.00;;;;;;;22.40;58.90;99763.38;5017242;28;96930;-85
2023/08/25 01:52:20;;;;;;;23.00;21.17;;;;;;;22.27;59.14;99759.16;5015969;28;98690;-85
2023/08/25 01:54:49;;;;;;;24.20;21.83;;;;;;;22.24;59.24;99750.59;5016295;28;100223;-85
2023/08/25 01:57:14;;;;;;;23.15;21.27;;;;;;;22.33;58.92;99753.25;5015755;28;96774;-85
2023/08/25 01:59:40;;;;;;;25.83;23.63;;;;;;;22.12;59.57;99732.00;5030381;28;97738;-85
2023/08/25 02:02:06;;;;;;;23.10;21.05;;;;;;;22.12;59.69;99742.69;5034220;28;98053;-84
2023/08/25 02:04:31;;;;;;;24.27;22.13;;;;;;;22.23;59.50;99744.41;5019768;28;99561;-85
2023/08/25 02:06:57;;;;;;;23.80;21.80;;;;;;;22.07;59.82;99739.56;5035160;28;97418;-85
2023/08/25 02:09:23;;;;;;;23.92;22.13;;;;;;;22.07;59.95;99747.59;5016231;28;96800;-84
2023/08/25 02:11:49;;;;;;;26.38;21.70;;;;;;;22.14;59.77;99732.69;5033271;28;99124;-85
2023/08/25 02:14:17;;;;;;;30.15;21.70;;;;;;;22.15;59.87;99725.53;5034464;27;96954;-83
2023/08/25 02:16:43;;;;;;;23.25;21.02;;;;;;;22.11;59.66;99708.94;5034073;27;96791;-85
2023/08/25 02:19:09;;;;;;;24.52;22.40;;;;;;;22.27;59.63;99719.06;5016249;28;96770;-85
2023/08/25 02:21:35;;;;;;;23.55;21.58;;;;;;;22.12;59.92;99713.28;5014791;28;98763;-85
2023/08/25 02:24:00;;;;;;;25.45;22.05;;;;;;;22.11;59.94;99716.09;5015690;28;98476;-84
2023/08/25 02:26:25;;;;;;;23.65;21.85;;;;;;;22.03;nan;99703.44;5033883;28;97823;-84
2023/08/25 02:28:53;;;;;;;23.38;21.35;;;;;;;22.25;59.64;99714.84;5019790;28;96710;-84
2023/08/25 02:31:19;;;;;;;24.00;22.13;;;;;;;22.07;60.05;99709.34;5015541;28;98970;-85
2023/08/25 02:33:45;;;;;;;22.92;21.08;;;;;;;22.10;60.08;99712.56;5033572;28;98205;-85
2023/08/25 02:36:11;;;;;;;23.33;21.10;;;;;;;22.25;60.03;99714.84;5015491;28;97052;-85
2023/08/25 02:38:36;;;;;;;23.80;21.70;;;;;;;22.05;60.12;99716.63;5034484;28;96828;-84
2023/08/25 02:41:02;;;;;;;23.27;21.30;;;;;;;22.10;59.83;99701.03;5033289;28;98801;-84
2023/08/25 02:43:28;;;;;;;22.70;21.15;;;;;;;22.20;59.54;99709.09;5033300;27;98638;-85
2023/08/25 02:45:58;;;;;;;22.58;20.85;;;;;;;22.21;59.99;99721.47;5032929;28;96685;-84
2023/08/25 02:48:25;;;;;;;23.80;21.27;;;;;;;22.32;59.47;99721.34;5023767;28;96966;-84
2023/08/25 02:50:50;;;;;;;22.73;20.55;;;;;;;22.39;59.26;99722.44;5029311;28;99309;-84
2023/08/25 02:53:16;;;;;;;22.48;20.48;;;;;;;22.44;59.08;99724.69;5033534;28;97373;-85
2023/08/25 02:55:41;;;;;;;22.05;20.20;;;;;;;22.57;58.92;99734.13;5033479;28;96791;-85
2023/08/25 02:58:07;;;;;;;23.33;21.10;;;;;;;22.49;59.22;99735.81;5033343;28;96820;-84
2023/08/25 03:00:32;;;;;;;23.20;21.38;;;;;;;22.43;59.50;99731.00;5033141;27;97643;-85
2023/08/25 03:02:58;;;;;;;23.88;21.48;;;;;;;22.41;59.38;99724.97;5026590;27;98648;-84
2023/08/25 03:05:25;;;;;;;25.63;21.55;;;;;;;22.11;60.46;99719.63;5022799;28;98360;-85
2023/08/25 03:07:52;;;;;;;24.98;21.52;;;;;;;21.99;60.81;99715.41;5029355;27;96909;-85
2023/08/25 03:10:17;;;;;;;23.77;21.67;;;;;;;21.73;61.63;99717.78;5017938;28;99095;-84
2023/08/25 03:12:43;;;;;;;23.25;21.25;;;;;;;21.93;61.20;99702.56;5018990;28;98684;-85
2023/08/25 03:15:09;;;;;;;23.75;21.52;;;;;;;21.87;61.63;99706.66;5033425;28;96663;-85
2023/08/25 03:17:34;;;;;;;24.42;21.98;;;;;;;21.74;61.76;99702.59;5015038;28;96968;-84
2023/08/25 03:20:02;;;;;;;23.95;21.67;;;;;;;21.78;61.65;99672.75;5024754;27;98992;-85
2023/08/25 03:22:29;;;;;;;25.10;22.77;;;;;;;22.01;61.21;99685.84;5016452;28;99790;-84
2023/08/25 03:24:54;;;;;;;24.75;22.70;;;;;;;21.92;61.29;99680.38;4995039;28;96789;-84
2023/08/25 03:27:20;;;;;;;22.98;21.17;;;;;;;21.93;61.22;99682.06;5023496;27;97770;-84
2023/08/25 03:29:46;;;;;;;23.80;21.83;;;;;;;22.09;60.90;99686.84;5025006;27;99003;-84
2023/08/25 03:32:12;;;;;;;22.85;20.88;;;;;;;22.06;60.93;99680.94;5022653;28;98573;-85
2023/08/25 03:34:37;;;;;;;24.17;21.60;;;;;;;22.11;60.81;99679.53;5036136;27;96693;-84
2023/08/25 03:37:03;;;;;;;24.05;21.63;;;;;;;22.26;60.50;99679.13;5025878;28;97610;-85
2023/08/25 03:39:29;;;;;;;25.10;22.65;;;;;;;22.40;60.57;99678.69;5014514;28;100771;-85
2023/08/25 03:41:55;;;;;;;23.42;21.45;;;;;;;22.42;60.46;99662.50;5024740;28;98872;-84
2023/08/25 03:44:20;;;;;;;22.45;20.77;;;;;;;22.43;60.70;99670.38;5008586;28;96836;-85
2023/08/25 03:46:46;;;;;;;22.83;20.70;;;;;;;22.45;60.65;99664.88;5009093;28;97038;-85
2023/08/25 03:49:11;;;;;;;22.30;20.58;;;;;;;22.39;60.31;99655.59;5006021;28;98792;-85
2023/08/25 03:51:37;;;;;;;23.25;21.38;;;;;;;22.49;60.54;99651.09;5032671;28;98646;-85
2023/08/25 03:54:06;;;;;;;24.08;21.70;;;;;;;22.44;60.78;99642.63;5014903;28;96796;-85
2023/08/25 03:56:32;;;;;;;25.08;22.13;;;;;;;22.52;60.77;99648.13;5018147;28;96935;-85
2023/08/25 03:58:57;;;;;;;24.42;21.95;;;;;;;22.28;61.32;99640.59;5017248;28;99269;-85
2023/08/25 04:01:23;;;;;;;24.58;22.58;;;;;;;22.09;62.16;99644.09;5017878;28;100802;-85
2023/08/25 04:03:48;;;;;;;25.23;22.98;;;;;;;22.13;61.86;99640.13;5042200;27;96668;-85
2023/08/25 04:06:14;;;;;;;25.45;22.83;;;;;;;22.06;61.92;99636.34;5044779;27;96865;-85
2023/08/25 04:08:39;;;;;;;24.90;22.45;;;;;;;22.09;62.21;99638.72;5021726;28;98762;-85
2023/08/25 04:11:05;;;;;;;24.98;22.88;;;;;;;22.18;62.08;99644.25;5017039;28;100187;-86
2023/08/25 04:13:30;;;;;;;24.98;22.75;;;;;;;22.12;62.46;99627.75;5022487;27;96583;-85
2023/08/25 04:15:57;;;;;;;25.95;23.67;;;;;;;22.14;62.25;99609.75;5049974;27;96949;-84
2023/08/25 04:18:24;;;;;;;24.90;22.45;;;;;;;22.04;62.60;99629.44;5017599;28;100464;-85
2023/08/25 04:20:49;;;;;;;25.58;23.23;;;;;;;21.98;62.52;99620.19;5017434;28;99399;-84
2023/08/25 04:23:15;;;;;;;24.45;22.48;;;;;;;22.00;62.57;99633.41;5017548;28;96919;-84
2023/08/25 04:25:41;;;;;;;23.90;21.88;;;;;;;21.76;63.40;99624.00;5033158;28;96948;-85
2023/08/25 04:28:07;;;;;;;24.33;22.42;;;;;;;21.81;63.04;99628.91;5017391;28;100476;-85
2023/08/25 04:30:33;;;;;;;24.55;22.33;;;;;;;21.65;63.66;99624.97;5035570;28;98916;-85
2023/08/25 04:33:04;;;;;;;23.90;21.95;;;;;;;21.51;64.20;99613.88;5025778;27;97160;-85
2023/08/25 04:35:31;;;;;;;23.08;21.25;;;;;;;21.54;64.27;99625.09;5010161;28;96841;-85
2023/08/25 04:37:58;;;;;;;23.45;21.65;;;;;;;21.77;63.47;99632.84;5017420;28;100133;-85
2023/08/25 04:40:24;;;;;;;24.20;22.10;;;;;;;22.04;62.69;99640.97;5017886;28;99095;-85
2023/08/25 04:42:51;;;;;;;24.45;22.13;;;;;;;22.22;62.29;99634.94;5031787;28;96853;-85
2023/08/25 04:45:17;;;;;;;22.52;20.92;;;;;;;22.21;62.51;99630.59;5035540;28;96797;-85
2023/08/25 04:47:43;;;;;;;24.42;22.15;;;;;;;22.24;62.31;99619.63;5030925;27;99337;-85
2023/08/25 04:50:10;;;;;;;24.23;22.05;;;;;;;22.28;62.24;99621.88;5025733;27;100113;-85
2023/08/25 04:52:38;;;;;;;23.90;21.75;;;;;;;22.27;62.30;99619.31;5022499;28;96950;-85
2023/08/25 04:55:05;;;;;;;22.27;20.40;;;;;;;22.32;61.90;99635.78;5035496;28;96876;-85
2023/08/25 04:57:32;;;;;;;23.40;21.35;;;;;;;22.52;61.48;99650.78;5035160;28;97960;-85
2023/08/25 04:59:59;;;;;;;23.88;21.50;;;;;;;22.65;61.13;99646.94;5017215;28;99905;-85
2023/08/25 05:02:28;;;;;;;22.23;20.53;;;;;;;22.75;60.94;99645.09;5017199;28;96710;-85
2023/08/25 05:04:54;;;;;;;23.60;21.38;;;;;;;22.73;60.75;99631.00;5013848;28;96862;-85
2023/08/25 05:07:23;;;;;;;23.48;21.10;;;;;;;22.62;61.01;99641.88;5017108;27;100814;-85
2023/08/25 05:09:49;;;;;;;22.08;20.35;;;;;;;22.79;60.49;99633.94;5033276;27;97391;-84
2023/08/25 05:12:15;;;;;;;21.58;19.77;;;;;;;22.99;60.00;99649.94;5022017;27;96801;-85
2023/08/25 05:14:42;;;;;;;23.55;21.63;;;;;;;23.01;59.82;99630.06;5026639;28;96948;-84
2023/08/25 05:17:08;;;;;;;22.70;20.55;;;;;;;23.03;59.65;99627.25;4997422;28;100524;-85
2023/08/25 05:19:35;;;;;;;23.27;21.23;;;;;;;23.15;59.55;99631.38;5014019;27;100098;-85
2023/08/25 05:22:01;;;;;;;22.25;20.15;;;;;;;23.31;59.19;99633.44;5022327;28;96686;-85
2023/08/25 05:24:27;;;;;;;24.52;22.05;;;;;;;23.47;58.65;99628.25;5016977;28;96882;-85
2023/08/25 05:26:54;;;;;;;23.38;21.38;;;;;;;23.58;58.20;99620.97;5016237;28;100537;-85
2023/08/25 05:29:25;;;;;;;24.35;21.90;;;;;;;23.59;57.92;99622.66;5011981;28;98952;-85
2023/08/25 05:31:52;;;;;;;;;;;;;;;23.81;57.49;99624.06;5008952;28;96831;-85
2023/08/25 05:34:36;;;;;;;24.83;22.70;;;;;;;24.18;56.44;99621.19;5018627;28;96720;-85
2023/08/25 05:37:07;;;;;;;;;;;;;;;24.85;55.12;99600.81;5029713;27;100538;-85
2023/08/25 05:39:32;;;;;;;23.77;21.85;;;;;;;25.57;53.38;99599.50;5049852;27;98611;-85
2023/08/25 05:41:58;;;;;;;24.42;21.92;;;;;;;24.99;54.37;99610.09;5016524;28;96804;-85
2023/08/25 05:44:24;;;;;;;23.30;21.17;;;;;;;24.72;55.16;99607.63;5048873;27;96789;-85
2023/08/25 05:46:50;;;;;;;23.20;21.40;;;;;;;25.16;54.27;99621.78;5016370;28;99216;-85
2023/08/25 05:49:17;;;;;;;25.98;23.02;;;;;;;25.78;52.84;99605.25;5016047;28;98398;-85
2023/08/25 05:51:44;;;;;;;24.38;21.88;;;;;;;26.15;51.61;99603.91;5016055;28;97208;-85
2023/08/25 05:54:10;;;;;;;28.20;22.30;;;;;;;26.22;51.69;99607.59;5016708;28;97005;-85
2023/08/25 05:56:36;;;;;;;23.65;21.67;;;;;;;28.64;46.99;99609.19;5048174;27;98785;-85
2023/08/25 05:59:01;;;;;;;26.50;21.75;;;;;;;28.70;46.49;99609.50;5022869;28;97619;-86
2023/08/25 06:01:28;;;;;;;24.25;21.85;;;;;;;30.17;43.68;99600.09;5031253;28;96686;-86
2023/08/25 06:03:53;;;;;;;23.20;20.92;;;;;;;31.47;41.40;99613.94;5044157;27;96777;-86
2023/08/25 06:06:19;;;;;;;23.77;21.75;;;;;;;31.62;40.65;99606.50;5039859;27;99126;-86
2023/08/25 06:08:45;;;;;;;24.55;21.98;;;;;;;32.23;39.34;99610.91;5043541;27;98874;-86
2023/08/25 06:11:10;;;;;;;23.52;21.15;;;;;;;32.10;39.60;99613.63;5023373;28;96851;-85
2023/08/25 06:13:36;;;;;;;23.05;21.15;;;;;;;31.88;39.83;99611.09;5034352;28;96858;-85
2023/08/25 06:16:02;;;;;;;24.17;21.50;;;;;;;32.69;38.66;99612.72;5033975;28;99197;-85
2023/08/25 06:18:28;;;;;;;23.65;21.60;;;;;;;32.64;38.88;99609.84;5047150;27;98832;-85
2023/08/25 06:20:54;;;;;;;24.05;22.15;;;;;;;32.75;39.07;99611.03;5039908;27;96689;-85
2023/08/25 06:23:20;;;;;;;23.73;21.50;;;;;;;31.87;39.86;99601.28;5044466;27;96767;-86
2023/08/25 06:25:45;;;;;;;22.83;20.80;;;;;;;32.52;39.45;99600.66;5053506;27;98705;-86
2023/08/25 06:28:12;;;;;;;22.80;20.77;;;;;;;32.21;39.88;99608.41;5039329;27;98442;-85
2023/08/25 06:30:40;;;;;;;24.63;22.33;;;;;;;32.68;38.95;99594.78;5040960;27;96597;-85
2023/08/25 06:33:06;;;;;;;22.50;20.85;;;;;;;33.15;38.77;99595.44;5027023;28;96643;-86
2023/08/25 06:35:31;;;;;;;22.45;20.45;;;;;;;32.84;39.21;99601.59;5015652;28;98713;-86
2023/08/25 06:37:57;;;;;;;20.95;19.33;;;;;;;32.79;39.43;99596.84;5015397;28;98640;-86
2023/08/25 06:40:22;;;;;;;22.20;20.38;;;;;;;33.76;38.08;99604.94;5031232;28;96779;-86
2023/08/25 06:42:48;;;;;;;23.02;20.90;;;;;;;35.80;34.77;99602.03;5031875;27;97178;-86
2023/08/25 06:45:14;;;;;;;24.85;22.50;;;;;;;36.60;33.22;99607.00;5038487;27;99283;-86
2023/08/25 06:47:40;;;;;;;22.23;20.65;;;;;;;36.47;32.96;99604.50;5040430;27;98863;-86
2023/08/25 06:50:06;;;;;;;23.80;21.92;;;;;;;35.60;34.80;99607.81;5040337;27;96723;-86
2023/08/25 06:52:32;;;;;;;22.50;20.85;;;;;;;36.35;33.57;99603.66;5052370;27;98612;-86
2023/08/25 06:54:58;;;;;;;22.63;20.77;;;;;;;36.08;33.27;99606.06;5042585;27;99278;-86
2023/08/25 06:57:24;;;;;;;21.75;20.02;;;;;;;36.55;33.56;99601.44;5030100;28;98826;-86
2023/08/25 06:59:50;;;;;;;21.83;20.42;;;;;;;37.91;31.70;99595.34;5023639;28;97347;-86
2023/08/25 07:02:16;;;;;;;22.95;20.80;;;;;;;38.94;29.77;99598.50;5033288;28;97134;-87
2023/08/25 07:04:42;;;;;;;22.00;20.33;;;;;;;41.56;27.13;99596.50;5033149;28;98909;-86
2023/08/25 07:07:07;;;;;;;20.67;18.92;;;;;;;42.21;26.50;99596.81;5033463;28;98700;-86
2023/08/25 07:09:33;;;;;;;21.02;19.52;;;;;;;43.60;25.24;99595.13;5024128;28;96799;-87
2023/08/25 07:11:59;;;;;;;21.95;19.85;;;;;;;43.83;24.80;99595.50;5035016;27;96798;-87
2023/08/25 07:14:24;;;;;;;22.73;20.70;;;;;;;43.79;24.42;99594.44;5036422;27;98768;-86
2023/08/25 07:16:50;;;;;;;21.58;19.80;;;;;;;42.67;25.83;99598.59;5027189;28;98579;-86
2023/08/25 07:19:16;;;;;;;21.80;20.17;;;;;;;43.22;25.21;99582.13;5047527;27;96697;-87
2023/08/25 07:21:43;;;;;;;22.65;21.15;;;;;;;43.57;24.20;99597.63;5021017;28;96917;-87
2023/08/25 07:24:08;;;;;;;22.65;20.73;;;;;;;43.25;24.13;99585.13;5030966;28;99225;-86
2023/08/25 07:26:34;;;;;;;22.35;20.85;;;;;;;43.00;24.70;99582.47;5022680;28;98625;-86
2023/08/25 07:28:59;;;;;;;20.65;19.15;;;;;;;45.63;22.70;99572.88;5027679;28;96729;-86
2023/08/25 07:31:25;;;;;;;21.83;19.98;;;;;;;43.39;24.26;99575.09;5033195;28;96746;-86
2023/08/25 07:33:50;;;;;;;20.15;18.77;;;;;;;43.39;24.76;99588.91;5032628;28;98782;-86
2023/08/25 07:36:17;;;;;;;21.08;19.40;;;;;;;40.75;27.08;99585.25;5032676;28;98812;-86
2023/08/25 07:38:43;;;;;;;20.95;19.33;;;;;;;40.27;27.75;99582.50;5020617;28;97291;-86
2023/08/25 07:41:11;;;;;;;22.13;20.15;;;;;;;41.82;26.77;99578.06;5030948;28;96834;-86
2023/08/25 07:43:37;;;;;;;20.67;19.10;;;;;;;43.05;25.57;99588.78;5032647;28;99096;-86
2023/08/25 07:46:03;;;;;;;21.33;19.92;;;;;;;44.32;24.15;99582.59;5020707;27;97234;-87
2023/08/25 07:48:28;;;;;;;20.42;19.02;;;;;;;44.96;23.47;99578.53;5026666;28;96699;-86
2023/08/25 07:50:54;;;;;;;20.95;19.35;;;;;;;46.90;21.54;99577.97;5014630;28;96940;-87
2023/08/25 07:53:20;;;;;;;20.33;18.92;;;;;;;47.55;21.04;99573.97;5032269;28;98694;-86
2023/08/25 07:55:46;;;;;;;21.33;19.73;;;;;;;46.91;20.50;99573.22;5020327;28;97680;-86
2023/08/25 07:58:11;;;;;;;19.70;18.50;;;;;;;48.69;19.40;99572.63;5045012;27;96731;-87
2023/08/25 08:00:40;;;;;;;20.02;18.58;;;;;;;48.78;19.44;99576.25;5043197;27;96758;-87
2023/08/25 08:03:11;;;;;;;19.50;18.13;;;;;;;48.73;19.54;99581.97;5031038;27;96762;-84
2023/08/25 08:05:38;;;;;;;20.38;18.90;;;;;;;50.17;18.32;99575.38;5022905;28;98967;-85
2023/08/25 08:08:04;;;;;;;20.52;18.95;;;;;;;51.46;17.80;99581.31;5043994;27;96808;-84
2023/08/25 08:10:29;;;;;;;21.50;19.77;;;;;;;52.00;16.66;99575.69;5019576;27;96908;-84
2023/08/25 08:12:55;;;;;;;20.45;18.85;;;;;;;51.36;16.87;99576.16;5042586;27;99321;-84
2023/08/25 08:15:21;;;;;;;20.52;19.02;;;;;;;52.81;16.34;99572.34;5046500;27;98516;-84
2023/08/25 08:17:46;;;;;;;22.70;20.83;;;;;;;52.46;16.35;99573.66;5032546;28;96721;-84
2023/08/25 08:20:12;;;;;;;21.02;19.48;;;;;;;51.46;16.70;99574.91;5032810;28;96826;-84
2023/08/25 08:22:40;;;;;;;19.63;18.27;;;;;;;53.76;15.49;99575.53;5046151;27;99253;-84
2023/08/25 08:25:09;;;;;;;21.00;19.40;;;;;;;51.74;16.61;99569.56;5020174;28;98765;-84
2023/08/25 08:27:34;;;;;;;;;;;;;;;54.15;15.09;99575.75;5007862;28;96735;-85
2023/08/25 08:30:00;;;;;;;20.52;18.85;;;;;;;53.90;14.51;99581.50;5022912;28;96852;-85
2023/08/25 08:32:25;;;;;;;21.05;19.65;;;;;;;55.88;13.64;99569.88;5031935;28;99019;-84
2023/08/25 08:34:51;;;;;;;21.02;19.50;;;;;;;56.28;13.30;99586.31;5032152;28;98984;-85
2023/08/25 08:37:16;;;;;;;20.45;18.92;;;;;;;56.90;13.54;99577.59;5014032;28;96833;-85
2023/08/25 08:39:43;;;;;;;21.23;19.27;;;;;;;56.36;13.60;99570.34;5032197;28;96953;-86
2023/08/25 08:42:12;;;;;;;20.48;18.92;;;;;;;57.91;12.30;99566.28;5035011;28;98751;-85
2023/08/25 08:44:44;;;;;;;20.80;19.08;;;;;;;55.55;13.27;99555.22;5040371;27;98352;-85
2023/08/25 08:47:10;;;;;;;20.52;19.13;;;;;;;55.41;14.18;99557.75;5044069;27;97284;-85
2023/08/25 08:49:36;;;;;;;21.67;20.08;;;;;;;57.00;13.28;99557.19;5035367;28;97135;-85
2023/08/25 08:52:03;;;;;;;21.42;19.60;;;;;;;58.44;12.33;99554.59;5016331;28;98758;-86
2023/08/25 08:54:31;;;;;;;19.73;18.52;;;;;;;58.83;11.62;99556.06;5017389;28;98854;-84
2023/08/25 08:56:57;;;;;;;;;;;;;;;59.60;11.48;99553.13;5010074;28;97200;-86
2023/08/25 08:59:23;;;;;;;20.92;19.52;;;;;;;57.27;12.64;99549.47;5029758;28;96798;-85
2023/08/25 09:01:49;;;;;;;20.45;19.17;;;;;;;59.63;11.97;99552.31;5035056;28;99503;-86
2023/08/25 09:04:15;;;;;;;20.67;19.20;;;;;;;60.55;11.06;99551.47;5017316;28;98964;-85
2023/08/25 09:06:42;;;;;;;20.08;18.88;;;;;;;61.47;10.39;99548.63;5017300;28;97175;-85
2023/08/25 09:09:08;;;;;;;19.15;17.95;;;;;;;61.63;9.72;99551.81;5014709;28;96898;-86
2023/08/25 09:11:35;;;;;;;20.17;18.77;;;;;;;61.18;9.91;99539.50;5016586;28;98811;-85
2023/08/25 09:14:04;;;;;;;20.02;18.80;;;;;;;61.18;10.26;99543.13;5035203;28;97285;-87
2023/08/25 09:16:35;;;;;;;21.05;19.73;;;;;;;60.91;10.37;99548.50;5013472;28;97059;-86
2023/08/25 09:19:05;;;;;;;20.23;18.83;;;;;;;58.57;11.29;99552.28;5037001;27;96739;-86
2023/08/25 09:21:31;;;;;;;19.90;18.65;;;;;;;59.24;10.93;99553.00;5044912;27;98029;-86
2023/08/25 09:23:59;;;;;;;21.08;19.63;;;;;;;58.85;10.92;99551.59;5035152;28;98792;-86
2023/08/25 09:26:25;;;;;;;20.60;18.80;;;;;;;54.16;13.17;99552.13;5044024;27;96713;-85
2023/08/25 09:28:53;;;;;;;20.30;18.55;;;;;;;51.52;15.38;99542.78;5025059;27;96789;-85
2023/08/25 09:31:28;;;;;;;19.92;18.73;;;;;;;49.12;17.30;99539.28;5022011;28;98812;-85
2023/08/25 09:34:05;;;;;;;20.63;19.17;;;;;;;46.54;19.28;99535.44;5021177;28;98340;-85
2023/08/25 09:36:31;;;;;;;19.95;18.65;;;;;;;45.02;20.34;99546.88;5043592;27;97539;-86
2023/08/25 09:38:57;;;;;;;20.55;19.17;;;;;;;43.70;21.12;99543.69;5041575;27;96802;-87
2023/08/25 09:41:26;;;;;;;19.35;17.85;;;;;;;42.43;23.13;99554.31;5026238;27;98741;-86
2023/08/25 09:44:01;;;;;;;20.25;18.60;;;;;;;41.88;23.44;99547.75;5042510;27;98700;-86
2023/08/25 09:46:31;;;;;;;19.60;18.40;;;;;;;42.14;24.06;99559.59;5020791;28;96660;-86
2023/08/25 09:49:05;;;;;;;19.52;18.23;;;;;;;42.21;23.72;99568.38;5035297;28;96828;-85
2023/08/25 09:51:50;;;;;;;20.55;19.05;;;;;;;42.00;24.39;99560.16;5015929;27;97657;-85
2023/08/25 09:54:19;;;;;;;19.90;18.55;;;;;;;41.33;24.43;99561.22;5019843;28;98578;-86
2023/08/25 09:56:46;;;;;;;20.67;19.23;;;;;;;40.87;24.72;99564.69;5021824;28;96806;-87
2023/08/25 09:59:13;;;;;;;20.77;19.25;;;;;;;40.61;24.99;99555.47;5022636;28;96851;-87
2023/08/25 10:01:43;;;;;;;20.75;19.25;;;;;;;40.75;25.56;99557.72;5019472;28;98763;-86
2023/08/25 10:04:08;;;;;;;20.73;19.27;;;;;;;40.73;25.78;99552.53;5023090;28;98679;-86
2023/08/25 10:06:37;;;;;;;19.90;18.40;;;;;;;40.63;25.94;99552.47;5028533;28;96720;-86
2023/08/25 10:09:03;;;;;;;20.25;18.48;;;;;;;38.70;26.62;99547.72;5014739;28;96757;-86
2023/08/25 10:11:34;;;;;;;21.25;19.10;;;;;;;38.67;27.01;99549.06;5026163;28;98974;-86
2023/08/25 10:14:03;;;;;;;19.90;18.50;;;;;;;38.87;28.06;99550.44;5011809;28;98802;-85
2023/08/25 10:16:51;;;;;;;21.48;19.75;;;;;;;38.73;27.44;99549.97;5025744;28;96743;-86
2023/08/25 10:19:24;;;;;;;20.85;19.25;;;;;;;39.01;27.55;99561.81;5021063;28;96804;-86
2023/08/25 10:21:51;;;;;;;20.25;18.83;;;;;;;38.74;27.84;99546.13;5021475;28;99893;-87
2023/08/25 10:24:23;;;;;;;19.30;18.05;;;;;;;38.81;28.21;99560.47;5034218;28;98259;-86
2023/08/25 10:26:50;;;;;;;20.00;18.60;;;;;;;38.73;28.56;99556.25;5022236;28;96775;-87
2023/08/25 10:29:18;;;;;;;19.80;18.50;;;;;;;38.70;27.84;99542.25;5005374;27;96938;-87
2023/08/25 10:31:48;;;;;;;20.42;18.83;;;;;;;37.74;28.25;99546.03;5025317;28;99051;-87
2023/08/25 10:34:32;;;;;;;21.38;19.77;;;;;;;37.19;28.71;99554.06;5037828;27;98749;-86
2023/08/25 10:37:12;;;;;;;20.08;18.38;;;;;;;37.15;29.23;99549.09;5054982;27;97005;-86
2023/08/25 10:39:48;;;;;;;20.00;18.45;;;;;;;37.85;29.39;99549.78;5020905;27;96917;-87
2023/08/25 10:42:47;;;;;;;20.83;19.38;;;;;;;37.94;29.10;99540.09;5021105;28;97999;-86
2023/08/25 10:45:13;;;;;;;21.05;19.33;;;;;;;37.09;29.38;99554.69;5029542;27;98842;-86
2023/08/25 10:47:46;;;;;;;19.90;18.45;;;;;;;36.44;30.11;99551.13;5054624;27;96659;-85
2023/08/25 10:50:12;;;;;;;19.75;18.25;;;;;;;36.93;30.06;99553.56;5046766;27;96865;-86
2023/08/25 10:52:42;;;;;;;19.85;18.40;;;;;;;36.66;30.39;99565.03;5019554;28;98868;-86
2023/08/25 10:55:45;;;;;;;21.08;19.38;;;;;;;36.67;30.62;99560.41;5012676;28;98302;-87
2023/08/25 10:58:17;;;;;;;20.23;18.70;;;;;;;36.39;30.27;99552.94;4957209;28;97029;-86
2023/08/25 11:00:43;;;;;;;20.40;19.00;;;;;;;36.58;30.82;99550.94;5007594;28;96781;-87
2023/08/25 11:03:09;;;;;;;19.13;17.88;;;;;;;36.55;31.20;99551.41;5030584;27;98555;-87
2023/08/25 11:05:35;;;;;;;19.80;18.45;;;;;;;36.60;31.23;99562.47;5033932;28;98500;-87
2023/08/25 11:08:05;;;;;;;18.95;17.85;;;;;;;36.46;31.48;99537.25;5035992;27;97427;-87
2023/08/25 11:10:35;;;;;;;20.63;19.00;;;;;;;35.92;31.88;99555.66;5021479;27;96755;-87
2023/08/25 11:13:07;;;;;;;20.17;18.63;;;;;;;35.69;32.12;99556.47;5044365;27;99053;-86
2023/08/25 11:15:36;;;;;;;19.83;18.30;;;;;;;35.10;33.41;99564.44;5036907;27;98450;-86
2023/08/25 11:18:02;;;;;;;20.23;18.60;;;;;;;35.17;33.46;99551.56;5034174;28;97137;-86